Time;durP1;ratioP1;P1;durP2;ratioP2;P2;SDS_P1;SDS_P2;PMS_P1;PMS_P2;Temp;Humidity;BMP_temperature;BMP_pressure;BME280_temperature;BME280_humidity;BME280_pressure;Samples;Min_cycle;Max_cycle;Signal;HPM_P1;HPM_P2
2023/03/09 00:02:22;;;;;;;3.53;2.63;;;;;;;-1.13;65.09;97765.94;5051408;28;20033;-52
2023/03/09 00:04:48;;;;;;;4.30;2.25;;;;;;;-1.06;65.59;97768.06;5052178;28;20094;-52
2023/03/09 00:07:13;;;;;;;4.30;2.20;;;;;;;-1.12;65.16;97768.50;5042590;28;20029;-48
2023/03/09 00:09:39;;;;;;;3.05;2.08;;;;;;;-1.36;65.39;97750.78;5034835;28;20052;-50
2023/03/09 00:12:04;;;;;;;5.25;2.65;;;;;;;-1.14;65.80;97783.50;5035102;28;20035;-53
2023/03/09 00:14:30;;;;;;;4.43;2.70;;;;;;;-1.14;65.53;97778.25;5035843;28;20091;-51
2023/03/09 00:16:55;;;;;;;4.95;2.75;;;;;;;-1.16;65.23;97780.13;5035435;28;20037;-51
2023/03/09 00:19:26;;;;;;;4.07;2.60;;;;;;;-1.20;65.67;97778.66;5035004;28;20323;-51
2023/03/09 00:21:54;;;;;;;3.08;2.13;;;;;;;-1.22;65.36;97780.53;5035008;28;20048;-54
2023/03/09 00:24:26;;;;;;;4.20;2.50;;;;;;;-1.28;65.47;97791.44;5034972;28;20459;-52
2023/03/09 00:26:57;;;;;;;3.95;2.40;;;;;;;-1.53;65.85;97758.88;5047006;28;20090;-50
2023/03/09 00:29:25;;;;;;;3.28;2.10;;;;;;;-1.30;65.42;97789.75;5054773;28;20029;-52
2023/03/09 00:31:51;;;;;;;4.95;2.70;;;;;;;-1.32;66.01;97778.50;5054588;28;20033;-53
2023/03/09 00:34:17;;;;;;;3.65;2.60;;;;;;;-1.31;65.48;97789.88;5054725;28;20021;-54
2023/03/09 00:36:42;;;;;;;2.92;2.40;;;;;;;-1.32;65.87;97789.00;5054902;28;20044;-53
2023/03/09 00:39:14;;;;;;;5.07;2.92;;;;;;;-1.17;65.57;97791.59;5054688;28;20048;-51
2023/03/09 00:41:41;;;;;;;2.72;2.10;;;;;;;-1.08;64.75;97784.91;5054301;28;20059;-53
2023/03/09 00:44:07;;;;;;;5.55;2.90;;;;;;;-0.96;65.05;97785.88;5053780;28;20419;-51
2023/03/09 00:46:34;;;;;;;3.63;2.47;;;;;;;-0.87;64.63;97783.44;5054880;28;20094;-50
2023/03/09 00:49:02;;;;;;;4.38;3.13;;;;;;;-0.92;64.59;97768.97;5053094;28;20040;-52
2023/03/09 00:51:27;;;;;;;4.18;2.65;;;;;;;-0.74;64.19;97793.97;5054105;28;20100;-48
2023/03/09 00:53:55;;;;;;;4.70;3.05;;;;;;;-0.69;63.90;97785.78;5053490;28;20060;-54
2023/03/09 00:56:25;;;;;;;5.30;3.15;;;;;;;-0.61;63.91;97796.63;5053872;28;20067;-52
2023/03/09 00:58:51;;;;;;;5.75;3.08;;;;;;;-0.75;63.62;97771.28;5054414;28;20360;-55
2023/03/09 01:01:17;;;;;;;5.95;3.10;;;;;;;-0.57;63.15;97781.50;5054383;28;20033;-49
2023/03/09 01:03:43;;;;;;;4.68;3.17;;;;;;;-0.45;63.38;97799.06;5037021;28;20036;-53
2023/03/09 01:06:09;;;;;;;4.68;2.97;;;;;;;-0.42;63.17;97791.91;5053956;28;20036;-51
2023/03/09 01:08:34;;;;;;;4.60;3.00;;;;;;;-0.37;62.54;97797.69;5037306;28;20029;-52
2023/03/09 01:11:00;;;;;;;4.68;2.72;;;;;;;-0.37;62.98;97790.63;5046706;28;20037;-50
2023/03/09 01:13:26;;;;;;;3.88;2.55;;;;;;;-0.28;62.75;97797.06;5054059;28;20098;-52
2023/03/09 01:15:52;;;;;;;4.30;2.70;;;;;;;-0.25;62.16;97804.72;5053860;28;20033;-50
2023/03/09 01:18:17;;;;;;;3.80;2.60;;;;;;;-0.33;62.13;97780.75;5052712;28;20025;-49
2023/03/09 01:20:43;;;;;;;4.70;2.78;;;;;;;-0.27;62.22;97792.66;5053825;28;20032;-48
2023/03/09 01:23:08;;;;;;;4.68;2.65;;;;;;;-0.28;62.72;97791.78;5054004;28;20051;-51
2023/03/09 01:25:34;;;;;;;5.38;3.00;;;;;;;-0.29;61.89;97787.50;5052645;28;20029;-49
2023/03/09 01:28:00;;;;;;;3.95;2.60;;;;;;;-0.45;62.00;97766.66;5054140;28;20056;-57
2023/03/09 01:30:25;;;;;;;3.50;2.40;;;;;;;-0.30;61.76;97797.19;5053124;28;20086;-51
2023/03/09 01:32:50;;;;;;;3.47;2.58;;;;;;;-0.38;62.05;97804.72;5039020;28;20033;-54
2023/03/09 01:35:16;;;;;;;4.32;2.65;;;;;;;-0.52;62.22;97805.69;5033617;28;20116;-52
2023/03/09 01:37:42;;;;;;;3.83;2.78;;;;;;;-0.58;62.67;97808.72;5033722;28;20057;-53
2023/03/09 01:40:15;;;;;;;2.92;2.42;;;;;;;-0.74;62.60;97812.38;5033227;28;20123;-60
2023/03/09 01:42:40;;;;;;;6.25;2.70;;;;;;;-0.85;63.23;97793.88;5034172;28;20033;-52
2023/03/09 01:45:18;;;;;;;4.60;2.58;;;;;;;-0.83;63.09;97805.13;5033740;28;20494;-50
2023/03/09 01:47:45;;;;;;;5.78;3.20;;;;;;;-0.97;63.26;97807.81;5033506;28;20167;-53
2023/03/09 01:50:11;;;;;;;4.30;2.33;;;;;;;-1.03;63.91;97802.00;5033619;28;20456;-49
2023/03/09 01:52:38;;;;;;;3.33;2.60;;;;;;;-1.08;63.82;97811.97;5033782;28;20030;-50
2023/03/09 01:55:08;;;;;;;3.53;2.67;;;;;;;-1.08;64.04;97804.09;5034450;28;20352;-52
2023/03/09 01:57:40;;;;;;;3.42;2.42;;;;;;;-1.11;63.95;97804.31;5033568;28;20041;-53
2023/03/09 02:00:12;;;;;;;5.18;3.00;;;;;;;-1.20;64.49;97811.00;5033723;28;20025;-55
2023/03/09 02:02:40;;;;;;;4.55;2.90;;;;;;;-1.25;64.28;97814.84;5034851;28;20121;-53
2023/03/09 02:05:11;;;;;;;4.72;2.83;;;;;;;-1.32;64.48;97815.25;5033326;28;20095;-56
2023/03/09 02:07:39;;;;;;;4.80;2.92;;;;;;;-1.44;64.15;97813.44;5033238;28;20040;-54
2023/03/09 02:10:17;;;;;;;4.35;2.88;;;;;;;-1.50;65.27;97809.41;5033830;28;20048;-55
2023/03/09 02:12:52;;;;;;;5.65;2.65;;;;;;;-1.57;65.39;97810.72;5043523;28;20040;-53
2023/03/09 02:15:21;;;;;;;5.65;2.60;;;;;;;-1.63;64.59;97816.38;5034635;28;20053;-50
2023/03/09 02:17:48;;;;;;;3.45;2.28;;;;;;;-1.71;65.06;97819.47;5032820;28;20044;-51
2023/03/09 02:20:22;;;;;;;3.70;2.38;;;;;;;-1.75;65.33;97828.47;5033269;28;20040;-48
2023/03/09 02:22:48;;;;;;;5.38;2.85;;;;;;;-1.81;65.38;97831.50;5033060;28;20033;-49
2023/03/09 02:25:19;;;;;;;3.25;2.40;;;;;;;-1.84;65.10;97829.06;5032598;28;20440;-49
2023/03/09 02:27:45;;;;;;;3.88;2.72;;;;;;;-1.89;65.81;97834.56;5047320;28;20060;-51
2023/03/09 02:30:12;;;;;;;3.58;2.55;;;;;;;-1.97;65.37;97839.47;5051441;28;20025;-51
2023/03/09 02:32:38;;;;;;;4.95;3.08;;;;;;;-2.06;65.79;97830.38;5052665;28;20041;-52
2023/03/09 02:35:09;;;;;;;5.68;2.88;;;;;;;-2.04;65.98;97841.63;5052567;28;20037;-51
2023/03/09 02:37:37;;;;;;;3.85;2.22;;;;;;;-2.08;65.95;97834.88;5052467;28;20036;-50
2023/03/09 02:40:13;;;;;;;4.70;2.90;;;;;;;-2.03;65.79;97838.06;5051877;28;20068;-53
2023/03/09 02:42:39;;;;;;;4.15;2.85;;;;;;;-2.09;65.93;97846.31;5052709;28;20037;-50
2023/03/09 02:45:06;;;;;;;5.38;2.53;;;;;;;-2.10;65.55;97842.00;5052412;28;20031;-50
2023/03/09 02:47:32;;;;;;;6.03;2.95;;;;;;;-2.12;65.98;97851.72;5034626;28;20103;-52
2023/03/09 02:49:57;;;;;;;3.28;2.35;;;;;;;-2.11;65.86;97863.91;5032622;28;20037;-53
2023/03/09 02:52:23;;;;;;;4.82;2.83;;;;;;;-2.14;65.74;97858.84;5032885;28;20025;-51
2023/03/09 02:54:48;;;;;;;4.25;2.50;;;;;;;-2.16;65.85;97848.44;5036796;28;20378;-54
2023/03/09 02:57:14;;;;;;;3.75;2.70;;;;;;;-2.11;65.83;97864.72;5052175;28;20044;-52
2023/03/09 02:59:40;;;;;;;5.65;2.25;;;;;;;-2.07;65.66;97855.75;5052697;28;20423;-52
2023/03/09 03:02:06;;;;;;;5.32;2.40;;;;;;;-2.19;65.02;97835.53;5051897;28;20065;-53
2023/03/09 03:04:31;;;;;;;3.80;2.15;;;;;;;-1.98;64.68;97867.47;5051816;28;20025;-49
2023/03/09 03:06:57;;;;;;;2.25;1.90;;;;;;;-2.00;65.10;97863.25;5051996;28;20044;-55
2023/03/09 03:09:22;;;;;;;3.92;2.28;;;;;;;-2.00;64.93;97856.22;5031204;28;20025;-57
2023/03/09 03:11:48;;;;;;;3.05;2.25;;;;;;;-2.09;64.75;97862.84;5031386;28;20033;-51
2023/03/09 03:14:13;;;;;;;3.60;2.20;;;;;;;-2.13;64.79;97858.75;5032321;28;20029;-55
2023/03/09 03:16:39;;;;;;;4.47;2.35;;;;;;;-2.20;64.40;97860.06;5032399;28;20048;-50
2023/03/09 03:19:04;;;;;;;5.00;2.05;;;;;;;-2.45;64.93;97825.66;5032193;28;20029;-51
2023/03/09 03:21:30;;;;;;;6.75;2.50;;;;;;;-2.30;64.91;97862.38;5032553;28;20033;-52
2023/03/09 03:23:55;;;;;;;3.75;2.30;;;;;;;-2.36;64.88;97866.22;5032531;28;20068;-49
2023/03/09 03:26:21;;;;;;;5.13;2.33;;;;;;;-2.39;64.57;97865.56;5037130;28;20029;-52
2023/03/09 03:28:46;;;;;;;4.70;2.60;;;;;;;-2.50;64.93;97859.16;5052477;28;20064;-52
2023/03/09 03:31:11;;;;;;;6.00;3.08;;;;;;;-2.70;65.53;97828.03;5032959;28;20029;-52
2023/03/09 03:33:37;;;;;;;4.80;2.58;;;;;;;-2.48;65.29;97859.91;5031738;28;20120;-48
2023/03/09 03:36:03;;;;;;;4.97;2.63;;;;;;;-2.53;64.95;97872.44;5032330;28;20454;-49
2023/03/09 03:38:29;;;;;;;4.32;2.42;;;;;;;-2.56;65.15;97869.16;5032261;28;20029;-47
2023/03/09 03:40:55;;;;;;;4.50;2.65;;;;;;;-2.59;65.49;97878.06;5033483;28;20064;-49
2023/03/09 03:43:21;;;;;;;5.90;3.15;;;;;;;-2.61;64.93;97869.44;5035610;28;20037;-51
2023/03/09 03:45:46;;;;;;;6.10;3.00;;;;;;;-2.68;65.32;97876.81;5036198;28;20120;-50
2023/03/09 03:48:11;;;;;;;6.45;3.03;;;;;;;-2.69;64.99;97879.50;5039651;28;20052;-54
2023/03/09 03:50:37;;;;;;;3.95;2.72;;;;;;;-2.93;65.10;97838.94;5054475;28;20458;-56
2023/03/09 03:53:03;;;;;;;3.72;2.78;;;;;;;-2.72;64.71;97874.44;5039273;28;20044;-52
2023/03/09 03:55:29;;;;;;;5.13;2.47;;;;;;;-2.64;64.49;97875.69;5036075;28;20104;-51
2023/03/09 03:57:54;;;;;;;5.70;2.58;;;;;;;-2.66;64.44;97879.31;5035997;28;20057;-53
2023/03/09 04:00:20;;;;;;;5.03;2.88;;;;;;;-2.66;64.46;97888.03;5035508;28;20032;-50
2023/03/09 04:02:46;;;;;;;4.35;2.15;;;;;;;-2.67;65.01;97885.50;5035592;28;20064;-62
2023/03/09 04:05:12;;;;;;;3.78;2.30;;;;;;;-2.72;64.84;97874.44;5036034;28;20444;-52
2023/03/09 04:07:37;;;;;;;4.68;2.90;;;;;;;-2.66;64.50;97895.03;5035591;28;20040;-52
2023/03/09 04:10:03;;;;;;;4.88;2.25;;;;;;;-2.63;64.53;97900.13;5034993;28;20444;-50
2023/03/09 04:12:29;;;;;;;6.13;2.55;;;;;;;-2.61;63.96;97903.50;5051905;28;20418;-51
2023/03/09 04:14:54;;;;;;;3.88;2.38;;;;;;;-2.60;63.89;97886.84;5054968;28;20033;-49
2023/03/09 04:17:20;;;;;;;3.85;2.63;;;;;;;-2.46;63.60;97899.16;5055321;28;20332;-55
2023/03/09 04:19:46;;;;;;;5.88;2.20;;;;;;;-2.41;63.23;97893.59;5055535;28;20438;-51
2023/03/09 04:22:11;;;;;;;5.55;2.45;;;;;;;-2.38;62.93;97901.31;5053660;28;20029;-54
2023/03/09 04:24:37;;;;;;;4.95;2.97;;;;;;;-2.31;62.51;97910.50;5044606;28;20040;-50
2023/03/09 04:27:02;;;;;;;4.50;2.90;;;;;;;-2.27;62.96;97893.66;5042798;28;20368;-49
2023/03/09 04:29:28;;;;;;;5.40;2.47;;;;;;;-2.21;62.62;97895.91;5043188;28;20044;-50
2023/03/09 04:31:53;;;;;;;4.32;2.45;;;;;;;-2.07;61.74;97908.19;5042991;28;20032;-52
2023/03/09 04:34:19;;;;;;;5.05;2.65;;;;;;;-2.04;61.51;97920.28;5043535;28;20090;-51
2023/03/09 04:36:44;;;;;;;2.95;2.03;;;;;;;-1.99;61.87;97909.53;5043048;28;20608;-49
2023/03/09 04:39:10;;;;;;;4.25;2.28;;;;;;;-1.98;61.42;97905.97;5042224;28;20067;-51
2023/03/09 04:41:35;;;;;;;4.50;1.98;;;;;;;-1.89;61.58;97911.50;5041841;28;20061;-55
2023/03/09 04:44:02;;;;;;;3.75;2.05;;;;;;;-1.91;60.89;97905.50;5042206;28;20079;-52
2023/03/09 04:46:27;;;;;;;5.65;2.60;;;;;;;-1.77;60.73;97907.28;5043864;28;20070;-49
2023/03/09 04:48:53;;;;;;;4.20;2.20;;;;;;;-1.66;60.67;97938.13;5042803;28;20045;-57
2023/03/09 04:51:18;;;;;;;5.28;2.63;;;;;;;-1.50;60.11;97929.28;5043075;28;20025;-50
2023/03/09 04:53:44;;;;;;;4.65;2.10;;;;;;;-1.32;59.51;97933.41;5041725;28;20032;-54
2023/03/09 04:56:09;;;;;;;3.65;2.08;;;;;;;-1.08;59.31;97948.56;5044670;28;20029;-50
2023/03/09 04:58:35;;;;;;;5.38;1.90;;;;;;;-0.96;57.81;97944.31;5042880;28;20030;-52
2023/03/09 05:01:03;;;;;;;4.18;1.80;;;;;;;-0.81;57.40;97923.25;5042106;28;20022;-52
2023/03/09 05:03:29;;;;;;;3.15;1.83;;;;;;;-0.01;55.94;97952.16;5050568;28;20036;-53
2023/03/09 05:05:55;;;;;;;5.35;1.73;;;;;;;0.69;54.00;97954.47;5039224;28;20507;-56
2023/03/09 05:08:20;;;;;;;4.63;1.90;;;;;;;1.18;52.86;97950.13;5043088;28;20155;-50
2023/03/09 05:10:46;;;;;;;5.10;2.15;;;;;;;1.63;51.37;97957.44;5043449;28;20401;-55
2023/03/09 05:13:13;;;;;;;3.78;2.28;;;;;;;2.03;50.78;97952.75;5042848;28;20034;-48
2023/03/09 05:15:40;;;;;;;4.65;2.10;;;;;;;2.33;48.70;97954.88;5041779;28;20053;-51
2023/03/09 05:18:07;;;;;;;4.13;2.20;;;;;;;2.47;48.41;97940.59;5042380;28;20025;-52
2023/03/09 05:20:33;;;;;;;3.63;2.40;;;;;;;2.93;48.06;97962.59;5043018;28;20033;-50
2023/03/09 05:22:59;;;;;;;3.00;1.90;;;;;;;3.50;46.82;97962.47;5043891;28;20475;-54
2023/03/09 05:25:24;;;;;;;3.15;1.67;;;;;;;4.18;44.23;97958.66;5042553;28;20025;-51
2023/03/09 05:27:50;;;;;;;3.80;2.20;;;;;;;5.01;43.42;97923.34;5027287;28;20032;-54
2023/03/09 05:30:16;;;;;;;3.67;2.08;;;;;;;6.13;40.68;97943.44;5041680;28;20029;-50
2023/03/09 05:32:42;;;;;;;3.15;1.90;;;;;;;6.28;40.25;97953.63;5041825;28;20026;-52
2023/03/09 05:35:08;;;;;;;5.18;2.10;;;;;;;5.97;40.23;97951.09;5041865;28;20533;-55
2023/03/09 05:37:34;;;;;;;4.03;2.17;;;;;;;5.69;40.54;97953.63;5037925;28;20491;-50
2023/03/09 05:39:59;;;;;;;3.97;2.15;;;;;;;5.72;40.87;97953.34;5045556;28;20055;-51
2023/03/09 05:42:25;;;;;;;8.20;2.35;;;;;;;5.96;40.02;97949.41;5053328;28;20045;-49
2023/03/09 05:44:50;;;;;;;4.07;1.63;;;;;;;6.22;38.58;97951.53;5050933;28;20041;-51
2023/03/09 05:47:16;;;;;;;4.32;1.95;;;;;;;6.35;38.28;97948.56;5053223;28;20452;-49
2023/03/09 05:49:41;;;;;;;3.03;1.80;;;;;;;6.72;37.86;97953.91;5052836;28;20029;-50
2023/03/09 05:52:07;;;;;;;5.18;2.22;;;;;;;7.15;36.86;97956.09;5050072;28;20053;-50
2023/03/09 05:54:32;;;;;;;2.83;2.05;;;;;;;7.21;36.49;97930.72;5033343;28;20061;-52
2023/03/09 05:56:58;;;;;;;4.00;2.20;;;;;;;7.37;36.26;97951.34;5032768;28;20108;-51
2023/03/09 05:59:24;;;;;;;3.88;1.92;;;;;;;7.31;36.16;97964.28;5032973;28;20064;-50
2023/03/09 06:01:49;;;;;;;4.50;2.30;;;;;;;7.18;36.63;97961.97;5032401;28;20048;-54
2023/03/09 06:04:14;;;;;;;4.97;2.05;;;;;;;7.05;36.45;97969.44;5033259;28;20091;-55
2023/03/09 06:06:40;;;;;;;5.57;2.38;;;;;;;6.73;37.22;97974.19;5032580;28;20029;-53
2023/03/09 06:09:05;;;;;;;4.53;1.80;;;;;;;6.56;37.58;97967.81;5015816;28;20052;-51
2023/03/09 06:11:31;;;;;;;6.03;2.28;;;;;;;6.74;37.37;97975.88;5033237;28;20025;-53
2023/03/09 06:13:57;;;;;;;5.93;1.90;;;;;;;7.25;36.10;97975.53;5033033;28;20090;-49
2023/03/09 06:16:24;;;;;;;4.43;1.90;;;;;;;7.32;36.03;97984.59;5032721;28;20040;-52
2023/03/09 06:18:50;;;;;;;4.32;1.67;;;;;;;7.16;35.73;97992.38;5046143;28;20033;-59
2023/03/09 06:21:15;;;;;;;4.95;1.52;;;;;;;6.57;35.86;97984.63;5033276;28;20065;-51
2023/03/09 06:23:41;;;;;;;3.92;1.90;;;;;;;5.98;36.66;97989.97;5032814;28;20132;-49
2023/03/09 06:26:10;;;;;;;5.28;2.13;;;;;;;5.68;38.12;97994.41;5032744;28;20030;-50
2023/03/09 06:28:35;;;;;;;6.75;1.92;;;;;;;5.97;37.75;97996.25;5032526;28;20444;-51
2023/03/09 06:31:11;;;;;;;5.25;1.90;;;;;;;6.14;37.51;98000.91;5032956;28;20036;-52
2023/03/09 06:33:41;;;;;;;3.30;2.35;;;;;;;5.89;37.47;98003.09;5033533;28;20521;-48
2023/03/09 06:36:08;;;;;;;3.80;1.63;;;;;;;5.44;37.24;97995.63;5032481;28;20112;-51
2023/03/09 06:38:34;;;;;;;4.00;2.05;;;;;;;4.94;39.32;98017.66;5015019;28;20444;-50
2023/03/09 06:41:01;;;;;;;4.18;1.70;;;;;;;4.40;39.67;98016.00;5043375;28;20051;-47
2023/03/09 06:43:27;;;;;;;4.32;2.17;;;;;;;4.15;40.13;98012.75;5052689;28;20041;-49
2023/03/09 06:45:53;;;;;;;6.72;2.00;;;;;;;4.51;40.02;98020.41;5050973;28;20151;-50
2023/03/09 06:48:18;;;;;;;4.60;1.98;;;;;;;4.52;39.81;97987.63;5052790;28;20067;-48
2023/03/09 06:50:44;;;;;;;3.38;2.30;;;;;;;4.77;40.26;98030.59;5051307;28;20025;-64
2023/03/09 06:53:10;;;;;;;4.75;2.33;;;;;;;4.70;39.93;98024.97;5038478;28;20060;-49
2023/03/09 06:55:37;;;;;;;5.53;2.08;;;;;;;4.63;40.04;98020.31;5044503;28;20173;-50
2023/03/09 06:58:03;;;;;;;10.55;2.42;;;;;;;4.41;40.04;98025.63;5031443;28;20041;-51
2023/03/09 07:00:28;;;;;;;5.35;2.08;;;;;;;4.45;40.47;98031.50;5047482;28;20041;-48
2023/03/09 07:02:54;;;;;;;6.38;2.20;;;;;;;4.84;39.44;98039.69;5051390;28;20026;-52
2023/03/09 07:05:19;;;;;;;3.42;2.20;;;;;;;5.22;38.47;98042.66;5052537;28;20043;-53
2023/03/09 07:07:45;;;;;;;3.20;2.20;;;;;;;5.39;38.06;98011.97;5052310;28;20355;-51
2023/03/09 07:10:11;;;;;;;3.97;2.20;;;;;;;5.62;36.93;98008.25;5046324;28;20033;-52
2023/03/09 07:12:38;;;;;;;2.72;1.92;;;;;;;5.76;36.70;98045.00;5040701;28;20029;-52
2023/03/09 07:15:05;;;;;;;4.18;2.00;;;;;;;5.75;36.95;98040.69;5044631;28;20111;-53
2023/03/09 07:17:31;;;;;;;5.32;2.20;;;;;;;5.65;37.26;98023.91;5048801;28;20029;-50
2023/03/09 07:19:57;;;;;;;3.00;2.17;;;;;;;5.79;37.01;98046.56;5053534;28;20059;-50
2023/03/09 07:22:23;;;;;;;4.28;2.00;;;;;;;5.84;36.64;98042.53;5055331;28;20025;-56
2023/03/09 07:24:49;;;;;;;5.40;2.22;;;;;;;6.51;35.60;98044.50;5056016;28;20025;-54
2023/03/09 07:27:14;;;;;;;4.32;1.98;;;;;;;8.25;32.94;98040.47;5054317;28;20419;-55
2023/03/09 07:29:40;;;;;;;5.63;2.05;;;;;;;10.04;29.55;98039.09;5056023;28;20408;-50
2023/03/09 07:32:06;;;;;;;5.85;1.85;;;;;;;11.31;27.60;98037.84;5053401;28;20087;-49
2023/03/09 07:34:32;;;;;;;4.40;1.60;;;;;;;11.91;26.64;98041.75;5054696;28;20037;-50
2023/03/09 07:36:59;;;;;;;8.85;2.20;;;;;;;11.12;27.38;98047.94;5055579;28;20032;-55
2023/03/09 07:39:24;;;;;;;3.95;1.80;;;;;;;9.73;29.10;98053.06;5053954;28;20048;-53
2023/03/09 07:41:50;;;;;;;4.40;1.80;;;;;;;8.40;30.88;98041.59;5053706;28;20049;-50
2023/03/09 07:44:16;;;;;;;5.15;2.13;;;;;;;7.40;32.20;98044.25;5055657;28;20041;-49
2023/03/09 07:46:41;;;;;;;3.22;1.77;;;;;;;6.83;32.98;98045.97;5055912;28;20083;-48
2023/03/09 07:49:07;;;;;;;4.55;1.90;;;;;;;6.36;33.74;98044.13;5053679;28;20442;-52
2023/03/09 07:51:33;;;;;;;4.57;1.85;;;;;;;6.02;34.56;98049.81;5054837;28;20039;-52
2023/03/09 07:53:59;;;;;;;5.50;1.90;;;;;;;5.90;35.23;98054.41;5054416;28;20037;-47
2023/03/09 07:56:25;;;;;;;6.20;2.00;;;;;;;5.68;34.81;98056.34;5055667;28;20056;-56
2023/03/09 07:58:52;;;;;;;4.90;1.92;;;;;;;5.38;35.29;98062.53;5055140;28;20079;-45
2023/03/09 08:01:18;;;;;;;5.03;1.67;;;;;;;5.00;35.27;98055.13;5055230;28;20357;-51
2023/03/09 08:03:45;;;;;;;2.55;1.60;;;;;;;4.84;34.66;98060.06;5055005;28;20363;-48
2023/03/09 08:06:11;;;;;;;4.70;1.85;;;;;;;4.58;35.93;98065.75;5055665;28;20044;-48
2023/03/09 08:08:37;;;;;;;8.43;1.85;;;;;;;4.51;36.09;98070.75;5055424;28;20345;-50
2023/03/09 08:11:04;;;;;;;5.13;1.90;;;;;;;4.49;36.20;98063.88;5054983;28;20040;-51
2023/03/09 08:13:30;;;;;;;4.28;1.65;;;;;;;4.63;35.72;98047.66;5054808;28;20116;-49
2023/03/09 08:16:00;;;;;;;4.18;1.77;;;;;;;4.78;35.79;98060.56;5055805;28;20048;-50
2023/03/09 08:18:25;;;;;;;6.00;1.90;;;;;;;4.82;35.94;98056.69;5055571;28;20432;-57
2023/03/09 08:20:51;;;;;;;3.85;1.73;;;;;;;4.88;35.89;98064.97;5054133;28;20036;-48
2023/03/09 08:23:17;;;;;;;3.88;1.92;;;;;;;5.03;35.18;98064.63;5054650;28;20048;-50
2023/03/09 08:25:43;;;;;;;5.53;1.65;;;;;;;5.20;35.21;98068.47;5054328;28;20033;-49
2023/03/09 08:28:10;;;;;;;3.25;1.77;;;;;;;5.27;34.45;98066.13;5054309;28;20036;-51
2023/03/09 08:30:38;;;;;;;3.58;1.33;;;;;;;5.26;34.41;98064.44;5054728;28;20032;-49
2023/03/09 08:33:03;;;;;;;3.90;1.50;;;;;;;4.94;34.87;98060.94;5054445;28;20148;-51
2023/03/09 08:35:32;;;;;;;2.78;1.60;;;;;;;4.93;35.55;98045.16;5054353;28;20348;-54
2023/03/09 08:37:59;;;;;;;3.85;1.80;;;;;;;4.87;34.97;98065.94;5054599;28;20033;-56
2023/03/09 08:40:25;;;;;;;5.75;1.70;;;;;;;4.81;35.12;98049.69;5053227;28;20471;-55
2023/03/09 08:42:50;;;;;;;4.68;1.77;;;;;;;4.75;35.25;98032.53;5054600;28;20041;-52
2023/03/09 08:45:16;;;;;;;3.83;1.63;;;;;;;5.03;34.93;98057.50;5054459;28;20043;-57
2023/03/09 08:47:41;;;;;;;6.03;1.98;;;;;;;5.05;34.76;98052.06;5054316;28;20079;-55
2023/03/09 08:50:07;;;;;;;3.63;1.70;;;;;;;5.24;34.73;98053.13;5054542;28;20033;-49
2023/03/09 08:52:36;;;;;;;5.95;1.60;;;;;;;5.42;34.39;98059.47;5054602;28;20025;-47
2023/03/09 08:55:02;;;;;;;7.47;1.83;;;;;;;5.48;34.07;98058.09;5054150;28;20083;-49
2023/03/09 08:57:28;;;;;;;4.10;2.03;;;;;;;5.45;34.33;98053.06;5054576;28;20064;-58
2023/03/09 08:59:54;;;;;;;6.35;2.00;;;;;;;5.51;34.08;98055.16;5054512;28;20438;-49
2023/03/09 09:02:20;;;;;;;2.95;1.27;;;;;;;5.40;34.00;98050.78;5054079;28;20391;-50
2023/03/09 09:04:46;;;;;;;6.32;1.90;;;;;;;5.38;34.76;98051.94;5054235;28;20112;-49
2023/03/09 09:07:12;;;;;;;3.72;1.30;;;;;;;5.33;34.07;98057.63;5053423;28;20060;-58
2023/03/09 09:09:39;;;;;;;4.85;1.65;;;;;;;5.43;33.55;98045.25;5054003;28;20025;-49
2023/03/09 09:12:05;;;;;;;4.10;1.65;;;;;;;5.39;34.19;98040.34;5051846;28;20033;-48
2023/03/09 09:14:32;;;;;;;5.82;1.83;;;;;;;5.49;34.47;98046.50;5047436;28;20106;-52
2023/03/09 09:16:58;;;;;;;7.00;1.95;;;;;;;5.62;33.92;98032.97;5052197;28;20099;-50
2023/03/09 09:19:24;;;;;;;5.53;1.63;;;;;;;5.64;34.17;98019.56;5053500;28;20120;-47
2023/03/09 09:21:51;;;;;;;9.25;2.45;;;;;;;5.91;33.72;98029.53;5050936;28;20136;-48
2023/03/09 09:24:17;;;;;;;9.57;2.65;;;;;;;6.16;33.46;98030.00;5046517;28;20036;-52
2023/03/09 09:26:42;;;;;;;3.35;1.50;;;;;;;6.29;32.65;98035.03;5034439;28;20037;-49
2023/03/09 09:29:08;;;;;;;3.28;1.80;;;;;;;6.28;33.21;98034.19;5036339;28;20029;-54
2023/03/09 09:31:33;;;;;;;5.15;1.88;;;;;;;6.22;33.48;98036.56;5040042;28;20475;-48
2023/03/09 09:33:59;;;;;;;6.85;2.13;;;;;;;6.07;33.71;98028.16;5052983;28;20033;-58
2023/03/09 09:36:25;;;;;;;3.30;1.90;;;;;;;5.98;34.03;98030.66;5050809;28;20111;-50
2023/03/09 09:38:53;;;;;;;9.10;2.35;;;;;;;5.88;34.16;98038.63;5051681;28;20490;-55
2023/03/09 09:41:30;;;;;;;6.72;2.15;;;;;;;5.71;33.26;98020.69;5052941;28;20117;-48
2023/03/09 09:44:00;;;;;;;5.35;1.98;;;;;;;5.32;34.37;98037.38;5052697;28;20533;-49
2023/03/09 09:46:28;;;;;;;6.72;2.05;;;;;;;5.00;34.63;98025.13;5052478;28;20108;-50
2023/03/09 09:48:53;;;;;;;2.88;1.63;;;;;;;4.90;35.23;98038.31;5051080;28;20029;-54
2023/03/09 09:51:40;;;;;;;4.35;1.90;;;;;;;4.93;35.44;98042.50;5039517;28;20910;-51
2023/03/09 09:54:21;;;;;;;2.15;1.08;;;;;;;4.62;34.83;98038.03;5045643;28;20032;-48
2023/03/09 09:56:51;;;;;;;4.32;1.63;;;;;;;4.32;35.96;98039.63;5052281;28;20112;-51
2023/03/09 09:59:40;;;;;;;4.22;1.60;;;;;;;4.35;36.49;98054.44;5047465;28;20068;-57
2023/03/09 10:02:18;;;;;;;5.90;1.30;;;;;;;4.15;35.51;98028.66;5043275;28;20118;-53
2023/03/09 10:04:56;;;;;;;2.88;1.40;;;;;;;4.04;35.95;98031.34;5053014;28;20463;-52
2023/03/09 10:07:23;;;;;;;4.85;1.48;;;;;;;3.90;36.23;98029.00;5051839;28;20036;-53
2023/03/09 10:09:56;;;;;;;5.05;1.45;;;;;;;3.87;36.54;98038.03;5050802;28;20029;-52
2023/03/09 10:12:22;;;;;;;4.05;1.52;;;;;;;3.69;36.46;98024.50;5045221;28;20029;-53
2023/03/09 10:15:16;;;;;;;4.10;1.88;;;;;;;3.79;36.91;98043.94;5036442;28;20036;-48
2023/03/09 10:17:51;;;;;;;4.13;1.20;;;;;;;3.79;37.65;98045.75;5044907;28;20447;-53
2023/03/09 10:20:21;;;;;;;4.30;1.63;;;;;;;3.75;37.76;98036.38;5043208;28;20025;-51
2023/03/09 10:22:49;;;;;;;3.30;1.10;;;;;;;3.78;37.94;98031.66;5043229;28;20034;-50
2023/03/09 10:25:19;;;;;;;5.47;1.65;;;;;;;3.75;38.70;98037.22;5032826;28;20106;-51
2023/03/09 10:28:02;;;;;;;4.38;1.27;;;;;;;3.76;38.50;98023.00;5032295;28;20453;-55
2023/03/09 10:30:43;;;;;;;4.28;1.35;;;;;;;3.72;38.61;98026.88;5047430;28;20025;-50
2023/03/09 10:33:08;;;;;;;1.83;0.95;;;;;;;3.69;39.09;98022.66;5046672;28;20037;-50
2023/03/09 10:35:45;;;;;;;2.60;1.15;;;;;;;3.72;39.46;98032.19;5039867;28;20044;-52
2023/03/09 10:38:19;;;;;;;2.28;1.02;;;;;;;3.68;39.99;98025.44;5052122;28;20040;-55
2023/03/09 10:40:49;;;;;;;2.83;1.05;;;;;;;3.57;40.64;98035.09;5052169;28;20082;-50
2023/03/09 10:43:27;;;;;;;3.08;1.00;;;;;;;3.41;41.11;98024.06;5052133;28;20387;-53
2023/03/09 10:45:54;;;;;;;6.97;1.42;;;;;;;3.13;41.92;98020.97;5051702;28;21353;-51
2023/03/09 10:48:20;;;;;;;5.13;1.20;;;;;;;3.10;42.39;98023.84;5051879;28;20478;-50
2023/03/09 10:50:59;;;;;;;4.63;1.40;;;;;;;2.90;42.69;97978.69;5042535;28;20107;-52
2023/03/09 10:53:36;;;;;;;4.03;1.40;;;;;;;3.24;42.87;98023.59;5032045;28;20069;-52
2023/03/09 10:56:21;;;;;;;2.75;1.40;;;;;;;3.25;43.59;98025.28;5032061;28;20120;-51
2023/03/09 10:59:09;;;;;;;4.10;1.30;;;;;;;3.15;44.58;98024.34;5032015;28;20029;-53
2023/03/09 11:01:37;;;;;;;4.03;1.40;;;;;;;3.21;44.38;98018.56;5039318;28;20060;-52
2023/03/09 11:04:23;;;;;;;5.43;1.80;;;;;;;3.34;44.65;98015.78;5034446;28;20448;-52
2023/03/09 11:06:57;;;;;;;4.03;1.42;;;;;;;3.19;45.74;98020.50;5037345;28;20058;-53
2023/03/09 11:09:33;;;;;;;4.10;1.20;;;;;;;3.05;46.00;98018.94;5032475;28;20041;-48
2023/03/09 11:12:33;;;;;;;7.70;1.67;;;;;;;2.85;46.92;98023.13;5032696;28;20029;-55
2023/03/09 11:15:02;;;;;;;6.32;2.40;;;;;;;2.59;48.44;98028.63;5033564;28;20037;-52
2023/03/09 11:17:41;;;;;;;3.25;1.77;;;;;;;2.44;48.95;98025.38;5052214;28;20402;-53
2023/03/09 11:20:12;;;;;;;4.22;1.50;;;;;;;2.29;50.37;98022.09;5051549;28;20123;-51
2023/03/09 11:22:45;;;;;;;2.97;1.50;;;;;;;2.19;50.62;98027.22;5051856;28;20067;-52
2023/03/09 11:25:17;;;;;;;4.32;1.55;;;;;;;2.04;51.32;98018.66;5050098;28;20047;-51
2023/03/09 11:27:49;;;;;;;4.38;1.50;;;;;;;1.98;52.30;98019.13;5052182;28;20095;-54
2023/03/09 11:30:16;;;;;;;6.75;1.60;;;;;;;1.96;52.49;98015.75;5048350;28;20467;-52
2023/03/09 11:32:42;;;;;;;5.90;1.73;;;;;;;1.90;53.13;98017.03;5031531;28;20333;-50
2023/03/09 11:35:15;;;;;;;6.22;2.15;;;;;;;1.76;53.70;97999.59;5031006;28;20033;-51
2023/03/09 11:37:51;;;;;;;5.45;2.13;;;;;;;1.76;53.72;98002.22;5031813;28;20022;-50
2023/03/09 11:40:18;;;;;;;;;;;;;;;2.06;51.07;98010.63;5048719;28;20052;-50
2023/03/09 11:42:56;;;;;;;11.02;1.90;;;;;;;1.86;53.56;98015.59;5051236;28;19925;-52